Time;durP1;ratioP1;P1;durP2;ratioP2;P2;SDS_P1;SDS_P2;PMS_P1;PMS_P2;Temp;Humidity;BMP_temperature;BMP_pressure;BME280_temperature;BME280_humidity;BME280_pressure;Samples;Min_cycle;Max_cycle;Signal;HPM_P1;HPM_P2
2021/05/13 00:01:20;;;;;;;15.07;5.13;;;15.50;97.40;;;;;;5073655;28;20055;-68
2021/05/13 00:04:04;;;;;;;10.20;5.05;;;15.50;97.50;;;;;;5086060;28;20036;-68
2021/05/13 00:06:48;;;;;;;10.88;4.90;;;15.50;97.40;;;;;;5065352;28;20036;-68
2021/05/13 00:09:33;;;;;;;5.85;4.07;;;15.50;97.30;;;;;;5063486;28;20031;-67
2021/05/13 00:12:37;;;;;;;12.07;5.22;;;15.50;97.20;;;;;;5072360;28;20040;-68
2021/05/13 00:15:24;;;;;;;11.07;4.40;;;15.50;97.40;;;;;;5053451;28;20098;-68
2021/05/13 00:18:09;;;;;;;8.38;4.55;;;15.40;97.40;;;;;;5082948;28;20344;-68
2021/05/13 00:20:55;;;;;;;8.20;4.35;;;15.40;97.40;;;;;;5072135;28;20131;-70
2021/05/13 00:23:40;;;;;;;7.97;3.95;;;15.30;97.10;;;;;;5070161;28;20040;-69
2021/05/13 00:26:35;;;;;;;8.02;4.57;;;15.30;97.20;;;;;;5063231;28;20077;-69
2021/05/13 00:29:26;;;;;;;7.18;4.55;;;15.20;97.20;;;;;;5072141;28;20102;-70
2021/05/13 00:32:10;;;;;;;11.05;5.00;;;15.30;97.40;;;;;;5072144;28;20084;-70
2021/05/13 00:34:54;;;;;;;8.63;5.22;;;15.20;97.50;;;;;;5057650;28;20083;-70
2021/05/13 00:37:39;;;;;;;10.25;5.60;;;15.10;97.70;;;;;;5084747;28;20034;-70
2021/05/13 00:40:23;;;;;;;9.25;5.72;;;15.10;97.80;;;;;;5053079;28;20040;-69
2021/05/13 00:43:07;;;;;;;12.32;5.15;;;15.00;97.80;;;;;;5080946;28;20056;-68
2021/05/13 00:45:51;;;;;;;8.27;5.17;;;15.00;97.90;;;;;;5057426;28;20032;-67
2021/05/13 00:48:36;;;;;;;9.55;4.80;;;15.00;97.90;;;;;;5066766;28;20277;-67
2021/05/13 00:51:20;;;;;;;9.52;5.43;;;15.00;97.80;;;;;;5071678;28;20648;-67
2021/05/13 00:54:04;;;;;;;11.52;4.90;;;15.00;98.00;;;;;;5076325;28;20043;-67
2021/05/13 00:56:48;;;;;;;10.15;5.50;;;15.00;98.00;;;;;;5075518;28;20487;-67
2021/05/13 00:59:35;;;;;;;8.75;5.45;;;15.00;98.10;;;;;;5080232;28;20043;-68
2021/05/13 01:02:20;;;;;;;11.10;5.45;;;15.00;98.30;;;;;;5071052;28;20048;-68
2021/05/13 01:05:05;;;;;;;8.05;5.13;;;14.90;98.40;;;;;;5077827;28;20031;-67
2021/05/13 01:07:49;;;;;;;11.43;5.47;;;15.00;98.40;;;;;;5091011;28;20403;-67
2021/05/13 01:10:34;;;;;;;8.57;5.10;;;15.00;98.40;;;;;;5062124;28;20053;-67
2021/05/13 01:13:22;;;;;;;11.60;5.10;;;14.90;98.50;;;;;;5066740;28;20043;-68
2021/05/13 01:18:50;;;;;;;8.77;4.57;;;14.80;98.40;;;;;;5079888;28;20036;-67
2021/05/13 01:21:39;;;;;;;6.43;4.03;;;14.70;98.60;;;;;;5070690;28;20042;-67
2021/05/13 01:24:23;;;;;;;11.23;4.45;;;14.60;98.70;;;;;;5077961;28;20384;-66
2021/05/13 01:26:49;;;;;;;9.25;3.85;;;14.70;98.70;;;;;;5062781;28;20111;-67
2021/05/13 01:29:34;;;;;;;10.25;4.88;;;14.60;98.60;;;;;;5087088;28;20114;-66
2021/05/13 01:32:19;;;;;;;7.53;4.10;;;14.60;98.70;;;;;;5076689;28;20039;-66
2021/05/13 01:35:04;;;;;;;5.82;4.18;;;14.50;98.80;;;;;;5070574;28;20070;-66
2021/05/13 01:37:59;;;;;;;8.50;4.18;;;14.50;98.90;;;;;;5069080;28;20059;-66
2021/05/13 01:40:54;;;;;;;8.70;4.50;;;14.50;99.00;;;;;;5081937;28;20081;-67
2021/05/13 01:43:38;;;;;;;10.02;4.40;;;14.50;99.00;;;;;;5051697;28;20454;-67
2021/05/13 01:46:22;;;;;;;8.82;4.30;;;14.50;98.90;;;;;;5057261;28;20040;-67
2021/05/13 01:49:14;;;;;;;11.05;4.40;;;14.50;99.00;;;;;;5069218;28;20109;-67
2021/05/13 01:51:59;;;;;;;9.07;4.30;;;14.50;98.80;;;;;;5056852;28;20487;-68
2021/05/13 01:54:43;;;;;;;8.13;4.13;;;14.50;98.70;;;;;;5068557;28;20066;-69
2021/05/13 01:57:27;;;;;;;8.60;3.97;;;14.50;98.60;;;;;;5073554;28;20035;-69
2021/05/13 02:00:11;;;;;;;7.57;4.20;;;14.40;98.60;;;;;;5070108;28;20051;-69
2021/05/13 02:02:55;;;;;;;10.10;4.88;;;14.30;98.80;;;;;;5071426;28;20106;-69
2021/05/13 02:05:39;;;;;;;10.65;4.47;;;14.40;98.80;;;;;;5070258;28;20083;-69
2021/05/13 02:08:23;;;;;;;8.68;4.93;;;14.30;98.80;;;;;;5055501;28;20039;-69
2021/05/13 02:11:07;;;;;;;9.55;5.25;;;14.20;99.00;;;;;;5071534;28;20234;-69
2021/05/13 02:13:51;;;;;;;7.72;5.03;;;14.20;99.00;;;;;;5052273;28;20468;-69
2021/05/13 02:16:35;;;;;;;9.85;4.95;;;14.20;99.10;;;;;;5071260;28;20124;-68
2021/05/13 02:19:19;;;;;;;6.93;5.15;;;14.10;99.00;;;;;;5056240;28;20031;-68
2021/05/13 02:22:03;;;;;;;13.38;5.57;;;14.10;99.20;;;;;;5070354;28;20036;-68
2021/05/13 02:24:47;;;;;;;10.35;5.15;;;14.10;99.20;;;;;;5061252;28;20045;-69
2021/05/13 02:27:32;;;;;;;12.45;6.05;;;14.10;99.20;;;;;;5069046;28;20035;-69
2021/05/13 02:30:16;;;;;;;11.40;6.63;;;14.10;99.30;;;;;;5072510;28;20514;-69
2021/05/13 02:33:00;;;;;;;7.97;5.10;;;14.10;99.40;;;;;;5071105;28;20071;-69
2021/05/13 02:35:44;;;;;;;13.48;6.43;;;14.20;99.30;;;;;;5070064;28;20112;-69
2021/05/13 02:38:28;;;;;;;11.15;5.40;;;14.10;99.40;;;;;;5070463;28;20485;-69
2021/05/13 02:41:12;;;;;;;12.85;6.43;;;14.10;99.40;;;;;;5051251;28;20048;-69
2021/05/13 02:43:56;;;;;;;10.07;5.95;;;14.10;99.30;;;;;;5069106;28;20040;-69
2021/05/13 02:46:40;;;;;;;10.27;5.93;;;14.10;99.30;;;;;;5070583;28;20047;-69
2021/05/13 02:49:24;;;;;;;12.30;6.90;;;14.10;99.30;;;;;;5070287;28;20672;-69
2021/05/13 02:52:08;;;;;;;11.13;5.13;;;14.00;99.30;;;;;;5067663;28;20043;-69
2021/05/13 02:54:52;;;;;;;9.90;5.63;;;14.10;99.30;;;;;;5060083;28;20036;-70
2021/05/13 02:57:37;;;;;;;10.18;5.30;;;14.10;99.40;;;;;;5070949;28;20031;-70
2021/05/13 03:00:27;;;;;;;8.45;4.63;;;14.00;99.40;;;;;;5069453;28;20098;-69
2021/05/13 03:03:11;;;;;;;8.13;5.30;;;14.00;99.40;;;;;;5070776;28;20487;-70
2021/05/13 03:05:55;;;;;;;9.98;5.25;;;14.00;99.50;;;;;;5069486;28;20059;-70
2021/05/13 03:08:40;;;;;;;15.82;6.40;;;13.90;99.40;;;;;;5069872;28;20089;-70
2021/05/13 03:11:27;;;;;;;11.00;5.38;;;13.90;99.40;;;;;;5070636;28;20719;-70
2021/05/13 03:14:11;;;;;;;10.95;5.80;;;14.00;99.50;;;;;;5057546;28;20074;-69
2021/05/13 03:16:55;;;;;;;9.15;6.25;;;14.00;99.50;;;;;;5086910;28;20086;-69
2021/05/13 03:19:43;;;;;;;13.00;5.93;;;14.00;99.30;;;;;;5076533;28;20078;-69
2021/05/13 03:22:27;;;;;;;12.68;5.78;;;14.00;99.30;;;;;;5087276;28;20062;-69
2021/05/13 03:25:13;;;;;;;11.52;5.70;;;13.90;99.30;;;;;;5076828;28;20063;-69
2021/05/13 03:27:54;;;;;;;8.68;5.30;;;13.90;99.30;;;;;;5062891;28;20032;-69
2021/05/13 03:30:44;;;;;;;9.48;5.63;;;13.90;99.30;;;;;;5073092;28;20035;-69
2021/05/13 03:33:28;;;;;;;11.15;5.53;;;13.90;99.40;;;;;;5074232;28;20040;-69
2021/05/13 03:36:12;;;;;;;9.40;4.97;;;13.90;99.40;;;;;;5094596;28;20541;-69
2021/05/13 03:38:56;;;;;;;8.73;5.18;;;13.90;99.40;;;;;;5066867;28;20549;-69
2021/05/13 03:41:40;;;;;;;11.93;5.65;;;13.90;99.30;;;;;;5054206;28;20036;-69
2021/05/13 03:44:24;;;;;;;11.35;5.40;;;13.90;99.30;;;;;;5061845;28;20499;-69
2021/05/13 03:47:08;;;;;;;10.77;4.55;;;13.90;99.40;;;;;;5073755;28;20032;-70
2021/05/13 03:49:52;;;;;;;9.40;5.30;;;14.00;99.40;;;;;;5072110;28;20035;-69
2021/05/13 03:52:36;;;;;;;8.57;4.40;;;14.00;99.40;;;;;;5080014;28;20089;-69
2021/05/13 03:55:20;;;;;;;9.60;4.93;;;14.00;99.30;;;;;;5072120;28;20078;-69
2021/05/13 03:58:07;;;;;;;8.23;5.07;;;13.90;99.30;;;;;;5074043;28;20031;-70
2021/05/13 04:03:38;;;;;;;8.38;4.72;;;13.90;99.40;;;;;;5077231;28;20039;-69
2021/05/13 04:06:23;;;;;;;9.55;5.05;;;13.90;99.40;;;;;;5072014;28;20074;-70
2021/05/13 04:09:09;;;;;;;7.57;4.88;;;14.00;99.40;;;;;;5071766;28;20051;-69
2021/05/13 04:11:53;;;;;;;10.15;5.13;;;14.00;99.40;;;;;;5073447;28;20086;-69
2021/05/13 04:14:37;;;;;;;7.05;5.22;;;14.00;99.40;;;;;;5067483;28;20104;-70
2021/05/13 04:17:22;;;;;;;8.48;5.78;;;14.00;99.30;;;;;;5090193;28;20409;-68
2021/05/13 04:20:08;;;;;;;9.32;5.32;;;14.00;99.30;;;;;;5083254;28;20038;-70
2021/05/13 04:22:52;;;;;;;9.98;6.32;;;14.00;99.30;;;;;;5074765;28;20100;-68
2021/05/13 04:25:37;;;;;;;8.77;5.07;;;13.90;99.40;;;;;;5069278;28;20135;-69
2021/05/13 04:28:21;;;;;;;;;;;14.00;99.40;;;;;;5073208;28;20082;-69
2021/05/13 04:31:05;;;;;;;11.93;6.63;;;14.00;99.40;;;;;;5079513;28;19914;-71
2021/05/13 04:33:49;;;;;;;9.13;5.18;;;14.00;99.60;;;;;;5071633;28;20115;-72
2021/05/13 04:36:33;;;;;;;11.57;5.60;;;14.10;99.50;;;;;;5072097;28;20036;-72
2021/05/13 04:39:17;;;;;;;9.48;5.85;;;14.10;99.40;;;;;;5075430;28;20110;-72
2021/05/13 04:42:01;;;;;;;8.20;5.63;;;14.10;99.40;;;;;;5074076;28;20048;-72
2021/05/13 04:44:46;;;;;;;8.30;5.80;;;14.20;99.50;;;;;;5071601;28;20035;-72
2021/05/13 04:50:27;;;;;;;10.38;5.20;;;14.30;99.30;;;;;;5069458;28;20538;-72
2021/05/13 04:53:14;;;;;;;7.57;5.28;;;14.20;99.20;;;;;;5058078;28;20071;-70
2021/05/13 04:55:59;;;;;;;9.25;5.13;;;14.20;99.30;;;;;;5071202;28;20137;-71
2021/05/13 04:58:44;;;;;;;8.60;5.07;;;14.20;99.30;;;;;;5072485;28;20154;-70
2021/05/13 05:01:28;;;;;;;8.88;5.00;;;14.30;99.30;;;;;;5063991;28;20102;-70
2021/05/13 05:04:12;;;;;;;9.90;5.70;;;14.30;99.30;;;;;;5074389;28;20407;-70
2021/05/13 05:06:56;;;;;;;8.52;5.05;;;14.30;99.30;;;;;;5057110;28;20038;-72
2021/05/13 05:09:40;;;;;;;9.05;5.03;;;14.30;99.30;;;;;;5060625;28;20027;-72
2021/05/13 05:12:24;;;;;;;8.07;5.35;;;14.30;99.30;;;;;;5052515;28;20035;-72
2021/05/13 05:15:09;;;;;;;8.82;5.70;;;14.30;99.20;;;;;;5066054;28;20185;-71
2021/05/13 05:17:54;;;;;;;;;;;14.40;99.20;;;;;;5067882;28;20392;-71
2021/05/13 05:20:37;;;;;;;7.97;5.15;;;14.40;99.20;;;;;;5059830;28;20003;-72
2021/05/13 05:23:22;;;;;;;9.70;5.80;;;14.40;99.20;;;;;;5071970;28;20113;-73
2021/05/13 05:26:06;;;;;;;8.35;5.55;;;14.40;99.10;;;;;;5079724;28;20019;-73
2021/05/13 05:28:50;;;;;;;7.68;4.75;;;14.40;99.20;;;;;;5037939;28;20420;-73
2021/05/13 05:31:34;;;;;;;8.85;5.60;;;14.50;99.10;;;;;;5092370;28;20085;-72
2021/05/13 05:34:18;;;;;;;8.25;4.40;;;14.50;99.00;;;;;;5075779;28;20059;-72
2021/05/13 05:37:02;;;;;;;7.50;5.22;;;14.60;99.00;;;;;;5071300;28;20430;-73
2021/05/13 05:39:47;;;;;;;10.50;5.88;;;14.60;98.90;;;;;;5077979;28;20509;-72
2021/05/13 05:42:31;;;;;;;8.73;5.18;;;14.60;98.80;;;;;;5070899;28;20051;-73
2021/05/13 05:45:16;;;;;;;7.95;4.72;;;14.60;98.90;;;;;;5067043;28;20070;-71
2021/05/13 05:48:01;;;;;;;9.50;5.88;;;14.50;99.00;;;;;;5065987;28;20042;-71
2021/05/13 05:50:45;;;;;;;10.18;5.35;;;14.50;98.90;;;;;;5071808;28;20392;-71
2021/05/13 05:53:29;;;;;;;9.35;5.43;;;14.50;99.00;;;;;;5071087;28;20086;-71
2021/05/13 05:56:13;;;;;;;6.90;4.47;;;14.50;99.10;;;;;;5062458;28;20519;-73
2021/05/13 05:58:57;;;;;;;8.20;5.35;;;14.40;99.00;;;;;;5070700;28;20079;-72
2021/05/13 06:01:41;;;;;;;8.93;5.15;;;14.40;99.20;;;;;;5091442;28;20059;-71
2021/05/13 06:04:25;;;;;;;9.73;4.90;;;14.40;99.30;;;;;;5075735;28;20062;-71
2021/05/13 06:07:09;;;;;;;8.25;5.13;;;14.40;99.40;;;;;;5071212;28;20028;-70
2021/05/13 06:09:55;;;;;;;7.03;5.03;;;14.30;99.40;;;;;;5078998;28;20501;-70
2021/05/13 06:12:41;;;;;;;10.07;5.15;;;14.30;99.50;;;;;;5051691;28;20040;-70
2021/05/13 06:15:25;;;;;;;9.30;5.07;;;14.30;99.40;;;;;;5076195;28;20062;-70
2021/05/13 06:18:10;;;;;;;7.13;4.22;;;14.30;99.60;;;;;;5057614;28;20035;-70
2021/05/13 06:20:54;;;;;;;9.18;3.90;;;14.30;99.60;;;;;;5052026;28;20056;-70
2021/05/13 06:23:38;;;;;;;7.63;4.55;;;14.40;99.60;;;;;;5055187;28;20397;-70
2021/05/13 06:26:24;;;;;;;6.47;4.43;;;14.40;99.50;;;;;;5071295;28;20027;-70
2021/05/13 06:29:08;;;;;;;6.13;4.20;;;14.30;99.60;;;;;;5069167;28;20035;-72
2021/05/13 06:31:53;;;;;;;5.93;4.00;;;14.40;99.70;;;;;;5063959;28;20057;-71
2021/05/13 06:34:36;;;;;;;7.00;4.30;;;14.40;99.60;;;;;;5076715;28;20054;-71
2021/05/13 06:37:20;;;;;;;4.70;3.60;;;14.40;99.50;;;;;;5091660;28;20077;-70
2021/05/13 06:40:06;;;;;;;6.22;4.18;;;14.50;99.50;;;;;;5062013;28;20034;-72
2021/05/13 06:42:50;;;;;;;5.50;3.70;;;14.50;99.40;;;;;;5055083;28;20048;-72
2021/05/13 06:45:34;;;;;;;5.60;3.28;;;14.50;99.40;;;;;;5072095;28;20126;-71
2021/05/13 06:48:18;;;;;;;6.47;3.90;;;14.50;99.30;;;;;;5070792;28;20093;-71
2021/05/13 06:51:03;;;;;;;7.63;4.47;;;14.50;99.30;;;;;;5069399;28;20035;-71
2021/05/13 06:53:47;;;;;;;6.63;4.55;;;14.50;99.20;;;;;;5069485;28;20039;-71
2021/05/13 06:56:31;;;;;;;7.70;4.60;;;14.50;99.30;;;;;;5073535;28;20090;-71
2021/05/13 06:59:15;;;;;;;7.82;5.25;;;14.50;99.30;;;;;;5056940;28;20040;-70
2021/05/13 07:01:59;;;;;;;6.95;4.70;;;14.50;99.30;;;;;;5072950;28;20173;-71
2021/05/13 07:04:43;;;;;;;5.53;4.40;;;14.50;99.30;;;;;;5076656;28;20028;-70
2021/05/13 07:07:27;;;;;;;7.75;5.20;;;14.50;99.40;;;;;;5074970;28;20070;-70
2021/05/13 07:10:11;;;;;;;7.85;5.40;;;14.50;99.50;;;;;;5072655;28;20040;-70
2021/05/13 07:12:56;;;;;;;7.50;5.35;;;14.50;99.50;;;;;;5074718;28;20078;-70
2021/05/13 07:15:40;;;;;;;9.70;6.00;;;14.50;99.50;;;;;;5070845;28;20434;-70
2021/05/13 07:18:25;;;;;;;10.35;5.78;;;14.50;99.40;;;;;;5074540;28;20182;-69
2021/05/13 07:21:09;;;;;;;;;;;14.50;99.40;;;;;;5095155;28;20039;-69
2021/05/13 07:23:54;;;;;;;9.80;6.15;;;14.50;99.80;;;;;;5078453;28;20015;-70
2021/05/13 07:26:38;;;;;;;8.07;5.63;;;14.40;99.50;;;;;;5090684;28;20036;-69
2021/05/13 07:29:05;;;;;;;8.25;5.57;;;14.50;99.60;;;;;;5068166;28;20024;-69
2021/05/13 07:31:49;;;;;;;;;;;14.50;99.70;;;;;;5054983;28;20143;-69
2021/05/13 07:34:34;;;;;;;10.07;6.15;;;14.40;99.60;;;;;;5072511;28;19966;-70
2021/05/13 07:37:18;;;;;;;9.52;6.40;;;14.40;99.70;;;;;;5073789;28;20055;-70
2021/05/13 07:40:03;;;;;;;9.70;6.13;;;14.40;99.70;;;;;;5082997;28;20051;-70
2021/05/13 07:42:48;;;;;;;7.25;5.55;;;14.40;99.70;;;;;;5073278;28;20074;-70
2021/05/13 07:45:33;;;;;;;8.95;5.10;;;14.40;99.60;;;;;;5066921;28;20082;-70
2021/05/13 07:48:18;;;;;;;6.93;5.13;;;14.50;99.60;;;;;;5085925;28;20691;-70
2021/05/13 07:51:03;;;;;;;6.72;5.00;;;14.50;99.60;;;;;;5071325;28;20039;-70
2021/05/13 07:53:47;;;;;;;7.32;4.55;;;14.50;99.50;;;;;;5054493;28;20511;-71
2021/05/13 07:56:31;;;;;;;6.18;4.47;;;14.40;99.50;;;;;;5088921;28;20028;-69
2021/05/13 07:59:16;;;;;;;8.80;5.30;;;14.40;99.60;;;;;;5071304;28;20502;-70
2021/05/13 08:02:00;;;;;;;8.95;5.43;;;14.40;99.60;;;;;;5073782;28;20044;-70
2021/05/13 08:04:44;;;;;;;10.00;6.30;;;14.40;99.60;;;;;;5071886;28;20074;-70
2021/05/13 08:07:28;;;;;;;8.18;5.47;;;14.40;99.60;;;;;;5073839;28;20046;-70
2021/05/13 08:10:13;;;;;;;9.07;5.30;;;14.40;99.60;;;;;;5076413;28;20034;-70
2021/05/13 08:12:57;;;;;;;7.85;4.88;;;14.40;99.60;;;;;;5074773;28;20447;-71
2021/05/13 08:15:41;;;;;;;7.40;5.15;;;14.50;99.50;;;;;;5072063;28;20040;-70
2021/05/13 08:18:26;;;;;;;8.85;5.38;;;14.50;99.50;;;;;;5061563;28;20036;-69
2021/05/13 08:21:10;;;;;;;8.90;5.85;;;14.60;99.50;;;;;;5068620;28;20444;-71
2021/05/13 08:23:54;;;;;;;8.77;5.55;;;14.60;99.40;;;;;;5072428;28;20090;-70
2021/05/13 08:26:38;;;;;;;8.18;5.65;;;14.60;99.30;;;;;;5072692;28;20396;-70
2021/05/13 08:29:24;;;;;;;7.90;5.35;;;14.70;99.30;;;;;;5085099;28;20059;-70
2021/05/13 08:32:09;;;;;;;9.02;6.05;;;14.70;99.20;;;;;;5073245;28;20178;-69
2021/05/13 08:34:53;;;;;;;7.43;5.20;;;14.80;99.20;;;;;;5071868;28;20047;-69
2021/05/13 08:37:37;;;;;;;7.43;5.50;;;14.80;99.10;;;;;;5053958;28;20043;-69
2021/05/13 08:40:22;;;;;;;8.00;5.97;;;14.80;98.90;;;;;;5074360;28;20032;-69
2021/05/13 08:43:27;;;;;;;7.90;5.55;;;14.70;98.90;;;;;;5072333;28;20090;-69
2021/05/13 08:46:11;;;;;;;7.72;5.00;;;14.70;99.00;;;;;;5077114;28;20431;-67
2021/05/13 08:48:56;;;;;;;7.70;4.55;;;14.70;99.00;;;;;;5072206;28;20051;-67
2021/05/13 08:51:40;;;;;;;7.18;4.75;;;14.70;99.00;;;;;;5049917;28;20118;-69
2021/05/13 08:54:24;;;;;;;6.13;4.43;;;14.80;98.90;;;;;;5073527;28;20074;-69
2021/05/13 08:57:13;;;;;;;7.13;3.95;;;14.60;99.00;;;;;;5066284;28;20114;-69
2021/05/13 08:59:58;;;;;;;5.32;3.75;;;14.70;99.10;;;;;;5044219;28;20048;-66
2021/05/13 09:02:50;;;;;;;6.88;4.22;;;14.60;99.20;;;;;;5069832;28;20043;-70
2021/05/13 09:05:49;;;;;;;7.55;4.35;;;14.60;99.40;;;;;;5071786;28;20403;-66
2021/05/13 09:08:34;;;;;;;6.35;4.03;;;14.60;99.50;;;;;;5070759;28;20394;-67
2021/05/13 09:11:18;;;;;;;5.43;4.00;;;14.50;99.70;;;;;;5068835;28;20054;-66
2021/05/13 09:14:03;;;;;;;6.95;4.18;;;14.50;99.60;;;;;;5065991;28;20039;-67
2021/05/13 09:16:49;;;;;;;7.15;4.30;;;14.50;99.70;;;;;;5052418;28;20047;-66
2021/05/13 09:19:37;;;;;;;5.93;3.80;;;14.50;99.80;;;;;;5062593;28;20391;-67
2021/05/13 09:22:24;;;;;;;5.82;3.80;;;14.50;99.90;;;;;;5057043;28;20039;-67
2021/05/13 09:25:10;;;;;;;5.22;3.35;;;14.50;99.90;;;;;;5070816;28;20578;-67
2021/05/13 09:27:54;;;;;;;5.93;3.60;;;14.60;99.90;;;;;;5068741;28;20039;-66
2021/05/13 09:30:38;;;;;;;6.47;3.33;;;14.60;99.90;;;;;;5065851;28;20062;-66
2021/05/13 09:33:30;;;;;;;4.80;3.00;;;14.60;99.90;;;;;;5082540;28;20116;-66
2021/05/13 09:36:18;;;;;;;5.30;2.70;;;14.60;99.90;;;;;;5068064;28;20035;-67
2021/05/13 09:38:44;;;;;;;4.05;2.25;;;14.60;99.80;;;;;;5039875;28;20033;-66
2021/05/13 09:41:09;;;;;;;4.53;2.55;;;14.50;99.90;;;;;;5074504;28;20496;-68
2021/05/13 09:43:35;;;;;;;4.55;2.60;;;14.50;99.90;;;;;;5071019;28;20040;-68
2021/05/13 09:46:03;;;;;;;5.22;2.60;;;14.40;99.80;;;;;;5070820;28;20119;-66
2021/05/13 09:48:41;;;;;;;5.22;2.58;;;14.40;99.90;;;;;;5070664;28;20035;-66
2021/05/13 09:51:20;;;;;;;4.10;2.22;;;14.40;99.90;;;;;;5059649;28;20024;-65
2021/05/13 09:53:47;;;;;;;4.53;2.67;;;14.50;99.90;;;;;;5069858;28;20033;-67
2021/05/13 09:56:26;;;;;;;5.47;2.88;;;14.50;99.90;;;;;;5064048;28;20021;-67
2021/05/13 09:58:51;;;;;;;3.97;2.60;;;14.60;99.90;;;;;;5052513;28;20035;-67
2021/05/13 10:01:18;;;;;;;5.15;3.30;;;14.60;99.90;;;;;;5070865;28;20052;-68
2021/05/13 10:03:44;;;;;;;4.63;2.83;;;14.60;99.90;;;;;;5069833;28;20103;-67
2021/05/13 10:06:29;;;;;;;6.65;3.00;;;14.70;99.90;;;;;;5039767;28;20048;-67
2021/05/13 10:09:14;;;;;;;5.57;3.58;;;14.70;99.80;;;;;;5068724;28;20092;-66
2021/05/13 10:12:00;;;;;;;7.40;3.97;;;14.70;99.80;;;;;;5058969;28;20515;-67
2021/05/13 10:14:44;;;;;;;5.50;3.45;;;14.70;99.90;;;;;;5064489;28;20140;-67
2021/05/13 10:17:30;;;;;;;5.55;3.85;;;14.80;99.80;;;;;;5054015;28;20449;-67
2021/05/13 10:20:19;;;;;;;5.38;3.67;;;14.80;99.70;;;;;;5064012;28;20178;-67
2021/05/13 10:23:03;;;;;;;6.43;4.18;;;14.70;99.50;;;;;;5070031;28;20594;-68
2021/05/13 10:25:47;;;;;;;5.53;3.72;;;14.70;99.60;;;;;;5075385;28;20408;-68
2021/05/13 10:28:13;;;;;;;8.18;4.30;;;14.70;99.60;;;;;;5061614;28;20016;-68
2021/05/13 10:30:40;;;;;;;8.10;4.82;;;14.80;99.60;;;;;;5066272;28;20025;-67
2021/05/13 10:33:05;;;;;;;9.02;4.65;;;14.80;99.70;;;;;;5061065;28;20013;-67
2021/05/13 10:36:07;;;;;;;7.35;4.72;;;14.80;99.70;;;;;;5071059;28;20047;-69
2021/05/13 10:39:05;;;;;;;8.65;5.38;;;14.80;99.40;;;;;;5072723;28;20392;-69
2021/05/13 10:41:50;;;;;;;7.82;4.78;;;14.80;99.60;;;;;;5068773;28;20162;-70
2021/05/13 10:44:23;;;;;;;8.43;5.10;;;14.80;99.70;;;;;;5069739;28;20031;-69
2021/05/13 10:47:08;;;;;;;6.57;4.35;;;14.90;99.60;;;;;;5071846;28;20039;-68
2021/05/13 10:49:45;;;;;;;5.90;4.07;;;14.90;99.50;;;;;;5073848;28;20035;-68
2021/05/13 10:52:43;;;;;;;6.25;4.05;;;14.90;99.40;;;;;;5058745;28;20400;-67
2021/05/13 10:55:36;;;;;;;5.38;3.80;;;14.90;99.40;;;;;;5056814;28;20119;-68
2021/05/13 10:58:58;;;;;;;4.40;3.22;;;14.90;99.30;;;;;;5066208;28;20434;-68
2021/05/13 11:01:51;;;;;;;6.78;4.07;;;14.90;99.30;;;;;;5058988;28;20362;-67
2021/05/13 11:04:35;;;;;;;5.25;3.65;;;14.90;99.20;;;;;;5064214;28;20063;-68
2021/05/13 11:07:12;;;;;;;7.05;4.05;;;14.90;99.30;;;;;;5073282;28;20064;-67
2021/05/13 11:09:47;;;;;;;9.82;3.55;;;14.90;99.30;;;;;;5065481;28;20051;-66
2021/05/13 11:12:24;;;;;;;5.22;3.58;;;15.00;99.30;;;;;;5074343;28;20033;-66
2021/05/13 11:15:05;;;;;;;5.35;3.17;;;15.00;99.30;;;;;;5088445;28;20035;-66
2021/05/13 11:17:49;;;;;;;5.25;3.55;;;15.00;99.20;;;;;;5075014;28;20035;-66
2021/05/13 11:20:34;;;;;;;5.20;3.87;;;15.00;99.20;;;;;;5074995;28;20059;-66
2021/05/13 11:23:09;;;;;;;5.45;3.72;;;15.00;99.20;;;;;;5075233;28;20044;-67
2021/05/13 11:25:42;;;;;;;;;;;15.00;99.30;;;;;;5065803;28;20039;-66
2021/05/13 11:28:40;;;;;;;5.38;3.42;;;15.00;99.20;;;;;;5071221;28;20382;-65
2021/05/13 11:31:24;;;;;;;5.60;3.40;;;15.00;99.30;;;;;;5074238;28;20082;-66
2021/05/13 11:34:13;;;;;;;5.30;3.20;;;15.00;99.30;;;;;;5071315;28;20089;-65
2021/05/13 11:36:58;;;;;;;5.75;3.25;;;15.00;99.40;;;;;;5064952;28;20032;-65
2021/05/13 11:39:43;;;;;;;6.60;3.95;;;15.00;99.40;;;;;;5062595;28;20047;-65
2021/05/13 11:42:27;;;;;;;5.43;3.60;;;15.00;99.40;;;;;;5073006;28;20498;-65
2021/05/13 11:45:22;;;;;;;5.82;3.33;;;15.00;99.40;;;;;;5083540;28;20391;-66
2021/05/13 11:48:19;;;;;;;9.20;3.90;;;15.00;99.40;;;;;;5064264;28;20039;-65
2021/05/13 11:51:07;;;;;;;4.55;3.50;;;15.00;99.40;;;;;;5073263;28;20380;-66
2021/05/13 11:53:58;;;;;;;6.78;3.40;;;15.00;99.40;;;;;;5072484;28;20124;-66
2021/05/13 11:56:43;;;;;;;5.85;3.42;;;15.00;99.50;;;;;;5078683;28;20047;-67
2021/05/13 11:59:11;;;;;;;5.47;3.08;;;15.00;99.50;;;;;;5066987;28;20056;-66
2021/05/13 12:01:57;;;;;;;6.10;3.22;;;15.00;99.50;;;;;;5081295;28;20047;-67
2021/05/13 12:04:41;;;;;;;5.80;3.58;;;15.00;99.40;;;;;;5070098;28;20058;-67
2021/05/13 12:07:29;;;;;;;5.20;3.50;;;15.00;99.50;;;;;;5077064;28;20040;-68
2021/05/13 12:10:29;;;;;;;4.40;2.95;;;15.00;99.40;;;;;;5069798;28;20427;-67
2021/05/13 12:13:15;;;;;;;5.85;3.00;;;15.10;99.40;;;;;;5079493;28;20032;-67
2021/05/13 12:16:03;;;;;;;4.63;3.10;;;15.10;99.30;;;;;;5085339;28;20377;-68
2021/05/13 12:18:51;;;;;;;6.18;3.30;;;15.10;99.40;;;;;;5053064;28;20044;-66
2021/05/13 12:21:39;;;;;;;5.10;3.15;;;15.10;99.40;;;;;;5062809;28;20484;-67
2021/05/13 12:24:31;;;;;;;6.53;3.05;;;15.20;99.30;;;;;;5070770;28;20025;-66
2021/05/13 12:27:18;;;;;;;4.03;2.60;;;15.10;99.20;;;;;;5071932;28;20448;-66
2021/05/13 12:30:05;;;;;;;5.30;3.28;;;15.10;99.20;;;;;;5069781;28;20036;-66
2021/05/13 12:32:51;;;;;;;5.68;3.13;;;15.10;99.30;;;;;;5072521;28;20024;-66
2021/05/13 12:35:37;;;;;;;5.05;3.25;;;15.30;99.50;;;;;;5073031;28;20518;-67
2021/05/13 12:38:25;;;;;;;4.82;3.08;;;15.40;99.60;;;;;;5054747;28;20025;-67
2021/05/13 12:41:20;;;;;;;5.57;3.05;;;15.50;99.40;;;;;;5070023;28;20089;-66
2021/05/13 12:44:09;;;;;;;6.25;2.78;;;15.50;99.20;;;;;;5072388;28;20508;-67
2021/05/13 12:46:59;;;;;;;4.65;2.70;;;15.60;99.00;;;;;;5060742;28;20056;-67
2021/05/13 12:49:45;;;;;;;3.95;2.80;;;15.50;98.90;;;;;;5069741;28;20027;-68
2021/05/13 12:52:31;;;;;;;4.25;2.67;;;15.50;98.60;;;;;;5057213;28;20118;-67
2021/05/13 12:55:18;;;;;;;3.38;2.47;;;15.50;98.60;;;;;;5063890;28;20024;-67
2021/05/13 12:58:19;;;;;;;4.05;2.55;;;15.60;98.60;;;;;;5071183;28;20025;-67
2021/05/13 13:01:05;;;;;;;4.50;2.90;;;15.60;98.70;;;;;;5057298;28;20052;-67
2021/05/13 13:03:56;;;;;;;5.50;2.83;;;15.50;98.40;;;;;;5050861;28;20094;-68
2021/05/13 13:06:53;;;;;;;4.15;3.05;;;15.50;98.40;;;;;;5058681;28;20542;-68
2021/05/13 13:09:38;;;;;;;4.57;2.58;;;15.50;98.30;;;;;;5075780;28;20027;-68
2021/05/13 13:12:24;;;;;;;4.35;2.42;;;15.50;98.30;;;;;;5069827;28;20081;-68
2021/05/13 13:15:12;;;;;;;3.47;2.35;;;15.40;98.10;;;;;;5066514;28;20029;-68
2021/05/13 13:18:03;;;;;;;3.88;2.55;;;15.30;98.20;;;;;;5053808;28;20078;-68
2021/05/13 13:20:49;;;;;;;3.92;2.55;;;15.30;98.20;;;;;;5068269;28;20441;-68
2021/05/13 13:23:35;;;;;;;4.22;2.38;;;15.30;98.30;;;;;;5069310;28;20064;-68
2021/05/13 13:26:23;;;;;;;3.13;2.25;;;15.30;98.20;;;;;;5070124;28;20034;-68
2021/05/13 13:29:11;;;;;;;3.35;2.20;;;15.20;98.30;;;;;;5068161;28;20498;-69
2021/05/13 13:32:01;;;;;;;4.05;2.92;;;15.20;98.20;;;;;;5052317;28;20512;-69
2021/05/13 13:34:47;;;;;;;3.63;2.33;;;15.20;98.40;;;;;;5059960;28;20040;-69
2021/05/13 13:37:33;;;;;;;2.22;1.90;;;15.20;98.50;;;;;;5039897;28;20044;-69
2021/05/13 13:40:19;;;;;;;6.47;2.60;;;15.20;98.50;;;;;;5071707;28;20032;-69
2021/05/13 13:43:06;;;;;;;3.42;2.58;;;15.10;98.70;;;;;;5069838;28;20036;-69
2021/05/13 13:45:52;;;;;;;6.22;2.20;;;15.20;98.70;;;;;;5072319;28;20031;-69
2021/05/13 13:48:38;;;;;;;3.38;2.30;;;15.10;98.70;;;;;;5068249;28;20508;-69
2021/05/13 13:51:24;;;;;;;5.72;2.50;;;15.20;98.80;;;;;;5050276;28;20033;-68
2021/05/13 13:54:09;;;;;;;3.78;2.47;;;15.10;98.60;;;;;;5067058;28;20447;-67
2021/05/13 13:56:55;;;;;;;3.65;2.58;;;15.10;98.70;;;;;;5067654;28;20035;-68
2021/05/13 13:59:41;;;;;;;4.60;3.22;;;15.10;98.70;;;;;;5069864;28;20032;-68
2021/05/13 14:02:27;;;;;;;3.65;2.58;;;15.10;98.70;;;;;;5070197;28;20171;-69
2021/05/13 14:05:13;;;;;;;3.35;2.20;;;15.10;98.70;;;;;;5066015;28;20035;-68
2021/05/13 14:07:59;;;;;;;3.38;2.15;;;15.10;98.80;;;;;;5069325;28;20147;-69
2021/05/13 14:10:48;;;;;;;3.45;2.03;;;15.10;98.80;;;;;;5080269;28;20039;-68
2021/05/13 14:13:34;;;;;;;2.70;2.00;;;15.10;98.80;;;;;;5077467;28;20548;-68
2021/05/13 14:16:19;;;;;;;3.38;1.90;;;15.10;98.80;;;;;;5066342;28;20037;-68
2021/05/13 14:19:05;;;;;;;3.30;1.63;;;15.10;98.80;;;;;;5068563;28;20027;-67
2021/05/13 14:21:51;;;;;;;3.33;1.75;;;15.10;98.80;;;;;;5050606;28;20056;-66
2021/05/13 14:24:37;;;;;;;3.35;1.90;;;15.20;98.80;;;;;;5072923;28;20031;-68